IAD weather

Washington Dulles International Airport
Washington, District of Columbia, United States

Public forecast

Using degrees Fahrenheit for public forecast. Weather courtesy of forecast.io.

Current aviation weather report (METAR) for Washington Dulles International Airport

Retrieved 2020/04/01 10:52 UTC (29 minutes ago):

KIAD 011052Z 35011KT05/02 A2981 RMK AO2 SLP094 T00500017

Aviation forecast (TAF) for Washington Dulles International Airport

Retrieved 2020/04/01 06:42 UTC (5 hours ago):

TAF KIAD 010534Z 0106/0212 06008KT 6SM BR SCT008 OVC015 FM010800 02006KT P6SM SCT008 OVC035 FM011000 01006KT P6SM SCT015 BKN040 FM011800 34007KT P6SM SCT030 BKN050 FM020000 33005KT P6SM FEW035 SCT090 FM020400 33005KT P6SM FEW250